Time;durP1;ratioP1;P1;durP2;ratioP2;P2;SDS_P1;SDS_P2;PMS_P1;PMS_P2;Temp;Humidity;BMP_temperature;BMP_pressure;BME280_temperature;BME280_humidity;BME280_pressure;Samples;Min_cycle;Max_cycle;Signal;HPM_P1;HPM_P2
2022/03/22 00:02:23;;;;;;;38.33;22.48;;;;;;;;;;5023818;28;20044;-89
2022/03/22 00:04:50;;;;;;;36.83;23.02;;;;;;;;;;5038724;28;20093;-91
2022/03/22 00:07:16;;;;;;;38.72;23.48;;;;;;;;;;5039199;28;20080;-88
2022/03/22 00:09:42;;;;;;;38.40;23.25;;;;;;;;;;5037148;28;20041;-90
2022/03/22 00:12:08;;;;;;;41.05;24.15;;;;;;;;;;5037805;28;20517;-93
2022/03/22 00:14:34;;;;;;;36.05;22.38;;;;;;;;;;5035806;28;20064;-91
2022/03/22 00:17:04;;;;;;;40.20;25.70;;;;;;;;;;5018540;28;20104;-86
2022/03/22 00:19:30;;;;;;;38.97;24.00;;;;;;;;;;5018850;28;20132;-86
2022/03/22 00:21:56;;;;;;;38.47;23.38;;;;;;;;;;5036051;28;20121;-87
2022/03/22 00:24:22;;;;;;;35.97;23.60;;;;;;;;;;5018484;28;20099;-86
2022/03/22 00:26:48;;;;;;;36.25;24.13;;;;;;;;;;5018199;28;20041;-91
2022/03/22 00:29:14;;;;;;;40.92;24.48;;;;;;;;;;5018500;28;20060;-88
2022/03/22 00:31:41;;;;;;;39.28;24.52;;;;;;;;;;5018045;28;20045;-86
2022/03/22 00:34:07;;;;;;;43.05;24.98;;;;;;;;;;5035151;28;20049;-87
2022/03/22 00:36:34;;;;;;;37.88;25.58;;;;;;;;;;5034545;28;20042;-89
2022/03/22 00:39:02;;;;;;;37.33;23.15;;;;;;;;;;5018227;28;20057;-91
2022/03/22 00:41:28;;;;;;;39.17;24.42;;;;;;;;;;5018349;28;20483;-89
2022/03/22 00:43:54;;;;;;;39.22;23.80;;;;;;;;;;5018554;28;20045;-88
2022/03/22 00:46:20;;;;;;;37.85;23.05;;;;;;;;;;5018905;28;20382;-87
2022/03/22 00:48:47;;;;;;;36.70;23.92;;;;;;;;;;5017624;28;20103;-89
2022/03/22 00:51:14;;;;;;;41.55;25.83;;;;;;;;;;5017621;28;20059;-86
2022/03/22 00:53:40;;;;;;;41.33;24.83;;;;;;;;;;5017771;28;20037;-88
2022/03/22 00:56:06;;;;;;;41.13;25.65;;;;;;;;;;5018035;28;20060;-86
2022/03/22 00:58:33;;;;;;;40.97;25.98;;;;;;;;;;5018295;28;20135;-84
2022/03/22 01:00:59;;;;;;;39.20;24.88;;;;;;;;;;5017776;28;20502;-87
2022/03/22 01:03:28;;;;;;;43.30;25.67;;;;;;;;;;5034522;28;20486;-87
2022/03/22 01:05:55;;;;;;;48.95;27.33;;;;;;;;;;5018586;28;20140;-88
2022/03/22 01:08:22;;;;;;;41.35;24.50;;;;;;;;;;5018401;28;20570;-89
2022/03/22 01:10:52;;;;;;;43.80;27.92;;;;;;;;;;5034523;28;20527;-89
2022/03/22 01:13:22;;;;;;;40.35;25.27;;;5.50;99.90;;;;;;5033668;28;20119;-86
2022/03/22 01:15:49;;;;;;;47.53;27.52;;;;;;;;;;5032430;28;20054;-87
2022/03/22 01:18:15;;;;;;;43.17;27.60;;;;;;;;;;5017648;28;20068;-88
2022/03/22 01:20:42;;;;;;;41.63;27.40;;;;;;;;;;5034343;28;20433;-89
2022/03/22 01:23:09;;;;;;;49.60;29.67;;;;;;;;;;5017461;28;20478;-88
2022/03/22 01:25:36;;;;;;;38.25;25.75;;;;;;;;;;5017538;28;20052;-85
2022/03/22 01:28:04;;;;;;;47.17;27.42;;;;;;;;;;5019013;28;20097;-91
2022/03/22 01:30:30;;;;;;;43.53;26.80;;;;;;;;;;5019123;28;20044;-92
2022/03/22 01:32:56;;;;;;;46.45;27.65;;;;;;;;;;5018253;28;20045;-89
2022/03/22 01:35:23;;;;;;;45.08;27.60;;;;;;;;;;5018458;28;20116;-92
2022/03/22 01:37:50;;;;;;;42.40;27.52;;;;;;;;;;5017859;28;20075;-91
2022/03/22 01:40:17;;;;;;;47.63;29.25;;;;;;;;;;5019180;28;20045;-92
2022/03/22 01:42:43;;;;;;;44.75;28.27;;;;;;;;;;5017947;28;20064;-89
2022/03/22 01:45:10;;;;;;;51.60;29.05;;;;;;;;;;5017351;28;20143;-87
2022/03/22 01:47:40;;;;;;;43.10;27.83;;;;;;;;;;5016569;28;20038;-87
2022/03/22 01:50:08;;;;;;;43.22;26.73;;;;;;;;;;5016840;28;20057;-93
2022/03/22 01:52:36;;;;;;;44.35;28.33;;;;;;;;;;5032919;28;20042;-88
2022/03/22 01:55:03;;;;;;;48.33;29.45;;;;;;;;;;5034321;28;20084;-89
2022/03/22 01:57:33;;;;;;;45.42;28.20;;;;;;;;;;5016807;28;20502;-88
2022/03/22 02:00:00;;;;;;;46.75;28.92;;;;;;;;;;5017580;28;20095;-87
2022/03/22 02:07:58;;;;;;;51.92;28.17;;;;;;;;;;5033774;28;20060;-85
2022/03/22 02:10:24;;;;;;;46.22;29.65;;;;;;;;;;5032826;28;20045;-92
2022/03/22 02:12:50;;;;;;;50.85;29.77;;;;;;;;;;5032814;28;20052;-88
2022/03/22 02:15:16;;;;;;;49.63;30.23;;;;;;;;;;5017261;28;20083;-85
2022/03/22 02:17:45;;;;;;;44.58;29.50;;;;;;;;;;5023887;28;20048;-87
2022/03/22 02:20:12;;;;;;;48.58;29.75;;;5.90;99.90;;;;;;5033038;28;20041;-86
2022/03/22 02:22:46;;;;;;;44.53;29.30;;;;;;;;;;5036509;28;20045;-85
2022/03/22 02:25:15;;;;;;;43.20;28.20;;;;;;;;;;5033994;28;20068;-92
2022/03/22 02:27:44;;;;;;;45.47;28.38;;;;;;;;;;5020489;28;20053;-90
2022/03/22 02:30:12;;;;;;;59.03;31.08;;;;;;;;;;5020160;28;20042;-86
2022/03/22 02:32:38;;;;;;;44.97;28.90;;;;;;;;;;5023269;28;20396;-85
2022/03/22 02:35:05;;;;;;;43.05;27.23;;;;;;;;;;5042085;28;20042;-85
2022/03/22 02:37:31;;;;;;;47.80;30.13;;;;;;;;;;5027741;28;20092;-85
2022/03/22 02:39:57;;;;;;;51.20;29.48;;;;;;;;;;5029191;28;20080;-85
2022/03/22 02:42:23;;;;;;;41.00;29.27;;;;;;;;;;5030475;28;20057;-85
2022/03/22 02:44:49;;;;;;;53.15;30.70;;;;;;;;;;5030238;28;20081;-85
2022/03/22 02:47:16;;;;;;;47.47;30.85;;;;;;;;;;5027600;28;20495;-84
2022/03/22 02:49:42;;;;;;;43.30;29.25;;;;;;;;;;5028807;28;20049;-85
2022/03/22 02:52:08;;;;;;;46.65;28.73;;;;;;;;;;5045910;28;20060;-84
2022/03/22 02:54:34;;;;;;;44.22;29.25;;;;;;;;;;5046293;28;20473;-86
2022/03/22 02:57:01;;;;;;;40.53;27.98;;;;;;;;;;5024758;28;20487;-88
2022/03/22 02:59:27;;;;;;;41.80;28.45;;;;;;;;;;5020025;28;20042;-89
2022/03/22 03:01:54;;;;;;;47.15;30.55;;;;;;;;;;5019394;28;20041;-90
2022/03/22 03:04:20;;;;;;;53.40;31.17;;;;;;;;;;5019463;28;20042;-87
2022/03/22 03:06:46;;;;;;;49.72;30.25;;;;;;;;;;5019042;28;20052;-85
2022/03/22 03:09:12;;;;;;;48.70;28.90;;;;;;;;;;5019482;28;20060;-93
2022/03/22 03:11:38;;;;;;;44.08;28.85;;;;;;;;;;5035525;28;20564;-88
2022/03/22 03:16:49;;;;;;;53.70;32.13;;;;;;;;;;5037075;28;20049;-88
2022/03/22 03:19:15;;;;;;;50.85;29.90;;;;;;;;;;5020522;28;20406;-89
2022/03/22 03:21:42;;;;;;;42.42;29.42;;;;;;;;;;5037946;28;20041;-88
2022/03/22 03:24:08;;;;;;;46.67;30.15;;;;;;;;;;5038105;28;20045;-87
2022/03/22 03:26:34;;;;;;;54.15;27.88;;;;;;;;;;5037268;28;20478;-88
2022/03/22 03:29:00;;;;;;;37.30;25.38;;;;;;;;;;5037254;28;20045;-88
2022/03/22 03:31:26;;;;;;;41.72;26.33;;;;;;;;;;5034996;28;20049;-89
2022/03/22 03:33:54;;;;;;;36.20;25.05;;;;;;;;;;5018932;28;20486;-88
2022/03/22 03:36:20;;;;;;;42.60;26.40;;;;;;;;;;5019608;28;20566;-88
2022/03/22 03:38:46;;;;;;;46.20;28.25;;;;;;;;;;5018401;28;20077;-87
2022/03/22 03:43:58;;;;;;;48.65;30.52;;;;;;;;;;5035368;28;20052;-88
2022/03/22 03:49:09;;;;;;;64.88;31.98;;;;;;;;;;5034936;28;20045;-87
2022/03/22 03:51:38;;;;;;;49.30;29.88;;;;;;;;;;5019438;28;20100;-89
2022/03/22 03:54:04;;;;;;;55.42;32.13;;;;;;;;;;5019397;28;20124;-88
2022/03/22 03:56:30;;;;;;;54.83;31.35;;;;;;;;;;5035701;28;20048;-88
2022/03/22 03:58:57;;;;;;;51.42;31.00;;;;;;;;;;5018723;28;20503;-89
2022/03/22 04:01:24;;;;;;;50.72;31.52;;;;;;;;;;5019656;28;20107;-87
2022/03/22 04:03:50;;;;;;;47.13;30.45;;;;;;;;;;5018136;28;20433;-88
2022/03/22 04:06:16;;;;;;;48.72;29.67;;;;;;;;;;5018846;28;20425;-86
2022/03/22 04:08:42;;;;;;;53.28;29.38;;;;;;;;;;5018274;28;20134;-88
2022/03/22 04:11:08;;;;;;;47.40;30.75;;;;;;;;;;5018228;28;20067;-86
2022/03/22 04:13:35;;;;;;;52.08;30.75;;;;;;;;;;5018244;28;20049;-88
2022/03/22 04:16:01;;;;;;;54.33;30.77;;;;;;;;;;5018307;28;20052;-88
2022/03/22 04:18:27;;;;;;;55.50;32.53;;;;;;;;;;5034818;28;20390;-89
2022/03/22 04:20:53;;;;;;;50.50;31.80;;;;;;;;;;5017881;28;20085;-89
2022/03/22 04:23:20;;;;;;;49.35;31.23;;;;;;;;;;5034056;28;20045;-87
2022/03/22 04:25:46;;;;;;;43.95;30.45;;;;;;;;;;5034468;28;20045;-86
2022/03/22 04:33:41;;;;;;;54.15;32.35;;;;;;;;;;5034494;28;20052;-87
2022/03/22 04:36:07;;;;;;;58.30;33.30;;;;;;;;;;5019071;28;20042;-88
2022/03/22 04:38:34;;;;;;;58.45;31.58;;;;;;;;;;5019075;28;20045;-86
2022/03/22 04:41:00;;;;;;;57.75;31.77;;;;;;;;;;5018263;28;20473;-88
2022/03/22 04:43:27;;;;;;;51.63;31.10;;;;;;;;;;5018129;28;20071;-88
2022/03/22 04:45:53;;;;;;;61.55;32.83;;;;;;;;;;5018178;28;20052;-88
2022/03/22 04:48:19;;;;;;;51.40;30.38;;;;;;;;;;5017304;28;20049;-89
2022/03/22 04:50:45;;;;;;;49.63;30.75;;;;;;;;;;5017008;28;20494;-88
2022/03/22 04:58:40;;;;;;;51.40;32.78;;;;;;;;;;5033986;28;20060;-89
2022/03/22 05:01:06;;;;;;;50.35;30.20;;;;;;;;;;5018116;28;20081;-88
2022/03/22 05:03:32;;;;;;;51.10;29.90;;;;;;;;;;5018402;28;20108;-90
2022/03/22 05:08:48;;;;;;;55.63;32.83;;;;;;;;;;4996873;28;20543;-88
2022/03/22 05:11:16;;;;;;;51.45;29.27;;;;;;;;;;4980423;28;20057;-88
2022/03/22 05:13:42;;;;;;;52.58;31.80;;;;;;;;;;4980397;28;20061;-88
2022/03/22 05:16:09;;;;;;;53.25;31.27;;;;;;;;;;4980569;28;20061;-86
2022/03/22 05:18:36;;;;;;;60.47;33.22;;;;;;;;;;4996851;28;20518;-88
2022/03/22 05:21:04;;;;;;;47.58;29.83;;;;;;;;;;4980691;28;20136;-88
2022/03/22 05:23:39;;;;;;;53.53;30.55;;;;;;;;;;4980878;28;20046;-88
2022/03/22 05:26:05;;;;;;;50.58;30.25;;;;;;;;;;4996748;28;20049;-87
2022/03/22 05:28:31;;;;;;;54.30;31.48;;;;;;;;;;4995969;28;20478;-89
2022/03/22 05:30:58;;;;;;;50.22;32.13;;;;;;;;;;5012194;28;20045;-87
2022/03/22 05:33:24;;;;;;;51.00;31.98;;;;;;;;;;4996407;28;20133;-88
2022/03/22 05:35:50;;;;;;;50.22;29.85;;;;;;;;;;4980942;28;20050;-88
2022/03/22 05:38:16;;;;;;;42.72;28.30;;;;;;;;;;4996848;28;20046;-89
2022/03/22 05:40:42;;;;;;;53.08;31.50;;;;;;;;;;4997449;28;20450;-88
2022/03/22 05:43:08;;;;;;;51.17;30.40;;;;;;;;;;4998729;28;20049;-89
2022/03/22 05:45:39;;;;;;;49.20;29.48;;;;;;;;;;5013414;28;20162;-90
2022/03/22 05:48:07;;;;;;;52.17;30.35;;;;;;;;;;5035028;28;20099;-88
2022/03/22 05:50:34;;;;;;;51.70;32.35;;;;;;;;;;5018280;28;20092;-88
2022/03/22 05:53:00;;;;;;;50.00;30.70;;;;;;;;;;5019462;28;20049;-88
2022/03/22 05:55:29;;;;;;;47.15;29.08;;;;;;;;;;5019215;28;20111;-88
2022/03/22 05:57:55;;;;;;;46.72;29.27;;;;;;;;;;5035531;28;20052;-89
2022/03/22 06:00:21;;;;;;;48.15;29.83;;;;;;;;;;5036784;28;20048;-88
2022/03/22 06:02:47;;;;;;;53.55;32.00;;;;;;;;;;5023745;28;20038;-86
2022/03/22 06:05:14;;;;;;;47.38;31.52;;;;;;;;;;5039573;28;20069;-89
2022/03/22 06:07:41;;;;;;;50.03;32.35;;;;;;;;;;5039456;28;20041;-88
2022/03/22 06:10:08;;;;;;;55.75;32.72;;;;;;;;;;5020591;28;20081;-87
2022/03/22 06:12:40;;;;;;;47.17;30.38;;;;;;;;;;5037790;28;20052;-89
2022/03/22 06:15:26;;;;;;;55.22;33.47;;;;;;;;;;5021095;28;20085;-87
2022/03/22 06:18:00;;;;;;;46.97;31.50;;;;;;;;;;5020422;28;20168;-90
2022/03/22 06:20:33;;;;;;;46.05;29.02;;;;;;;;;;5020711;28;20402;-88
2022/03/22 06:23:04;;;;;;;50.15;29.20;;;;;;;;;;5021314;28;20045;-88
2022/03/22 06:25:30;;;;;;;47.15;30.40;;;;;;;;;;5037017;28;20049;-88
2022/03/22 06:27:57;;;;;;;52.30;29.33;;;;;;;;;;5020669;28;20128;-86
2022/03/22 06:30:24;;;;;;;43.67;28.52;;;;;;;;;;5020662;28;20536;-86
2022/03/22 06:32:51;;;;;;;48.20;29.30;;;;;;;;;;5021391;28;20053;-88
2022/03/22 06:35:19;;;;;;;46.80;29.85;;;;;;;;;;5020346;28;20049;-87
2022/03/22 06:37:46;;;;;;;54.78;29.42;;;;;;;;;;5020155;28;20042;-88
2022/03/22 06:40:13;;;;;;;47.40;28.35;;;;;;;;;;5019968;28;20045;-88
2022/03/22 06:42:40;;;;;;;45.63;29.83;;;;;;;;;;5037059;28;20057;-89
2022/03/22 06:45:06;;;;;;;46.58;28.73;;;;;;;;;;5020780;28;20045;-88
2022/03/22 06:47:33;;;;;;;51.40;30.52;;;;;;;;;;5020926;28;20041;-88
2022/03/22 06:49:59;;;;;;;47.70;29.90;;;;;;;;;;5037169;28;20544;-89
2022/03/22 06:52:26;;;;;;;53.38;31.65;;;;;;;;;;5036754;28;20410;-89
2022/03/22 06:54:52;;;;;;;48.65;29.77;;;;;;;;;;5020070;28;20045;-88
2022/03/22 06:57:19;;;;;;;51.33;29.70;;;;;;;;;;5020213;28;20494;-88
2022/03/22 06:59:45;;;;;;;46.65;29.30;;;;;;;;;;5037010;28;20117;-88
2022/03/22 07:02:11;;;;;;;52.40;29.95;;;;;;;;;;5021320;28;20088;-88
2022/03/22 07:04:37;;;;;;;48.05;28.73;;;;;;;;;;5036614;28;20128;-88
2022/03/22 07:07:03;;;;;;;47.75;29.35;;;;;;;;;;5019642;28;20077;-89
2022/03/22 07:09:30;;;;;;;49.65;29.15;;;;;;;;;;5036564;28;20045;-89
2022/03/22 07:11:56;;;;;;;45.58;29.77;;;;;;;;;;5019113;28;20540;-89
2022/03/22 07:14:27;;;;;;;40.50;27.30;;;;;;;;;;5019301;28;20042;-89
2022/03/22 07:16:53;;;;;;;46.38;28.70;;;;;;;;;;5036270;28;20107;-89
2022/03/22 07:19:20;;;;;;;48.05;29.40;;;;;;;;;;5036401;28;20146;-85
2022/03/22 07:21:47;;;;;;;49.20;29.75;;;;;;;;;;5036496;28;20045;-89
2022/03/22 07:24:13;;;;;;;47.80;28.70;;;;;;;;;;5036430;28;20068;-88
2022/03/22 07:26:42;;;;;;;42.95;28.20;;;;;;;;;;5019333;28;20045;-88
2022/03/22 07:29:09;;;;;;;43.83;28.65;;;;;;;;;;5019465;28;20045;-87
2022/03/22 07:31:38;;;;;;;51.88;29.48;;;;;;;;;;5018604;28;20049;-86
2022/03/22 07:34:08;;;;;;;47.20;27.80;;;;;;;;;;5019170;28;20132;-85
2022/03/22 07:36:37;;;;;;;48.95;28.63;;;;;;;;;;5019129;28;20140;-88
2022/03/22 07:39:07;;;;;;;48.20;31.02;;;;;;;;;;5019263;28;20092;-86
2022/03/22 07:41:34;;;;;;;40.63;27.35;;;;;;;;;;5035869;28;20099;-87
2022/03/22 07:44:04;;;;;;;47.50;28.42;;;;;;;;;;5035626;28;20037;-87
2022/03/22 07:46:30;;;;;;;47.63;30.08;;;;;;;;;;5018868;28;20045;-86
2022/03/22 07:52:58;;;;;;;48.70;31.65;;;;;;;;;;5018729;28;20052;-87
2022/03/22 07:54:27;;;;;;;45.03;28.92;;;;;;;;;;5035766;28;20045;-87
2022/03/22 07:56:54;;;;;;;44.15;29.48;;;;;;;;;;5018852;28;20392;-88
2022/03/22 07:59:20;;;;;;;43.78;29.30;;;;;;;;;;5034466;28;20056;-89
2022/03/22 08:01:47;;;;;;;48.60;28.65;;;;;;;;;;5035945;28;20048;-85
2022/03/22 08:04:13;;;;;;;52.13;29.35;;;;;;;;;;5034359;28;20049;-88
2022/03/22 08:06:39;;;;;;;45.45;30.30;;;;;;;;;;5036412;28;20049;-86
2022/03/22 08:09:05;;;;;;;54.20;32.13;;;;;;;;;;5035354;28;20045;-87
2022/03/22 08:11:31;;;;;;;48.35;28.65;;;;;;;;;;5035189;28;20041;-89
2022/03/22 08:13:59;;;;;;;44.08;28.70;;;;;;;;;;5034975;28;20048;-88
2022/03/22 08:16:26;;;;;;;46.17;30.27;;;;;;;;;;5018723;28;20091;-88
2022/03/22 08:18:53;;;;;;;51.65;32.20;;;;;;;;;;5018266;28;20129;-88
2022/03/22 08:21:19;;;;;;;49.28;29.73;;;;;;;;;;5035018;28;20068;-89
2022/03/22 08:23:45;;;;;;;48.85;29.73;;;;;;;;;;5017170;28;20037;-88
2022/03/22 08:26:13;;;;;;;46.50;30.90;;;;;;;;;;5018124;28;20045;-87
2022/03/22 08:28:40;;;;;;;50.83;28.20;;;;;;;;;;5018806;28;20045;-87
2022/03/22 08:31:06;;;;;;;46.00;29.35;;;;;;;;;;5018417;28;20045;-87
2022/03/22 08:33:32;;;;;;;53.22;29.08;;;;;;;;;;5018037;28;20104;-88
2022/03/22 08:35:58;;;;;;;52.80;27.92;;;;;;;;;;5018346;28;20045;-85
2022/03/22 08:38:24;;;;;;;46.38;28.52;;;;;;;;;;5034327;28;20105;-86
2022/03/22 08:40:51;;;;;;;46.60;27.00;;;;;;;;;;5017500;28;20045;-87
2022/03/22 08:43:19;;;;;;;50.47;28.70;;;;;;;;;;5017677;28;20048;-85
2022/03/22 08:45:45;;;;;;;39.03;26.13;;;;;;;;;;5034295;28;20041;-87
2022/03/22 08:48:12;;;;;;;43.10;27.35;;;;;;;;;;5018150;28;20041;-89
2022/03/22 08:50:45;;;;;;;40.20;26.73;;;;;;;;;;5033490;28;20088;-88
2022/03/22 08:53:12;;;;;;;39.92;27.40;;;;;;;;;;5036625;28;20045;-96
2022/03/22 08:55:38;;;;;;;39.13;27.45;;;;;;;;;;5019870;28;20112;-95
2022/03/22 08:58:05;;;;;;;43.45;27.20;;;;;;;;;;5037031;28;20077;-90
2022/03/22 09:00:35;;;;;;;53.47;28.65;;;;;;;;;;5036398;28;20052;-86
2022/03/22 09:03:02;;;;;;;45.55;26.27;;;;;;;;;;5035578;28;20042;-93
2022/03/22 09:08:13;;;;;;;43.20;27.42;;;;;;;;;;5035178;28;20041;-87
2022/03/22 09:10:39;;;;;;;39.05;26.25;;;;;;;;;;5035040;28;20486;-89
2022/03/22 09:13:06;;;;;;;44.35;27.27;;;;;;;;;;5017975;28;20102;-90
2022/03/22 09:15:36;;;;;;;45.33;29.52;;;;;;;;;;5018432;28;20041;-92
2022/03/22 09:18:02;;;;;;;42.05;26.95;;;;;;;;;;5019918;28;20041;-93
2022/03/22 09:20:32;;;;;;;39.20;25.77;;;;;;;;;;5019874;28;20490;-94
2022/03/22 09:22:59;;;;;;;41.97;27.50;;;10.20;99.90;;;;;;5035718;28;20506;-87
2022/03/22 09:25:27;;;;;;;35.70;26.95;;;;;;;;;;5018919;28;20037;-89
2022/03/22 09:27:53;;;;;;;37.22;25.45;;;;;;;;;;5018943;28;20578;-94
2022/03/22 09:30:19;;;;;;;39.05;26.90;;;;;;;;;;5035183;28;20057;-93
2022/03/22 09:32:46;;;;;;;41.85;26.92;;;;;;;;;;5018164;28;20049;-90
2022/03/22 09:35:13;;;;;;;41.15;28.48;;;;;;;;;;5016633;28;20490;-87
2022/03/22 09:37:41;;;;;;;42.97;27.20;;;;;;;;;;5016787;28;20049;-87
2022/03/22 09:40:08;;;;;;;47.33;27.98;;;;;;;;;;5033298;28;20051;-88
2022/03/22 09:42:34;;;;;;;39.33;26.02;;;;;;;;;;5016527;28;20048;-88
2022/03/22 09:45:00;;;;;;;44.20;27.75;;;;;;;;;;5016725;28;20041;-86
2022/03/22 09:47:27;;;;;;;45.22;27.00;;;;;;;;;;5033078;28;20052;-88
2022/03/22 09:49:53;;;;;;;40.97;26.63;;;;;;;;;;5032692;28;20525;-88
2022/03/22 09:52:19;;;;;;;40.30;25.20;;;;;;;;;;5033357;28;20107;-88
2022/03/22 09:54:46;;;;;;;43.47;26.17;;;;;;;;;;5017682;28;20046;-86
2022/03/22 09:57:12;;;;;;;43.90;26.17;;;;;;;;;;5016758;28;20052;-87
2022/03/22 09:59:39;;;;;;;37.20;24.98;;;;;;;;;;5017658;28;20521;-87
2022/03/22 10:02:05;;;;;;;41.47;26.25;;;;;;;;;;5034314;28;20042;-87
2022/03/22 10:04:36;;;;;;;41.38;25.45;;;;;;;;;;5018266;28;20042;-87
2022/03/22 10:07:05;;;;;;;38.63;24.92;;;;;;;;;;5016799;28;20490;-85
2022/03/22 10:09:32;;;;;;;37.55;26.58;;;;;;;;;;5016088;28;20041;-87
2022/03/22 10:11:59;;;;;;;41.70;24.48;;;;;;;;;;5016980;28;20537;-86
2022/03/22 10:14:41;;;;;;;44.10;25.65;;;12.10;99.90;;;;;;5016280;28;20515;-85
2022/03/22 10:17:20;;;;;;;39.60;25.48;;;;;;;;;;5034498;28;20081;-87
2022/03/22 10:19:46;;;;;;;46.85;26.05;;;;;;;;;;5034430;28;20402;-88
2022/03/22 10:22:13;;;;;;;36.92;24.75;;;;;;;;;;5017134;28;20044;-88
2022/03/22 10:24:47;;;;;;;38.35;25.90;;;;;;;;;;5016455;28;20502;-88
2022/03/22 10:27:23;;;;;;;34.50;23.10;;;;;;;;;;5016498;28;20498;-88
2022/03/22 10:29:50;;;;;;;42.13;24.42;;;;;;;;;;5035771;28;20053;-90
2022/03/22 10:32:16;;;;;;;39.38;24.58;;;;;;;;;;5019013;28;20079;-96
2022/03/22 10:34:43;;;;;;;38.20;24.63;;;;;;;;;;5035566;28;20048;-95
2022/03/22 10:37:09;;;;;;;32.63;23.25;;;13.20;99.90;;;;;;5018683;28;20098;-93
2022/03/22 10:39:40;;;;;;;39.97;24.40;;;13.20;99.90;;;;;;5018603;28;20041;-85
2022/03/22 10:42:08;;;;;;;39.88;25.08;;;13.40;99.90;;;;;;5018509;28;20109;-94
2022/03/22 10:44:39;;;;;;;32.35;21.30;;;13.50;99.90;;;;;;5019019;28;20128;-95
2022/03/22 10:47:07;;;;;;;38.60;23.25;;;13.70;99.90;;;;;;5036941;28;20050;-92
2022/03/22 10:49:34;;;;;;;36.65;24.05;;;13.80;99.90;;;;;;5023154;28;20049;-91
2022/03/22 10:52:00;;;;;;;35.25;23.33;;;;;;;;;;5023537;28;20049;-92
2022/03/22 10:54:26;;;;;;;36.28;22.92;;;;;;;;;;5022328;28;20100;-95
2022/03/22 10:56:52;;;;;;;44.08;24.20;;;;;;;;;;5038673;28;20047;-95
2022/03/22 10:59:19;;;;;;;35.17;23.35;;;14.00;99.90;;;;;;5022535;28;20049;-92
2022/03/22 11:01:47;;;;;;;39.15;24.40;;;14.10;99.90;;;;;;5023283;28;20048;-96
2022/03/22 11:04:16;;;;;;;34.38;23.50;;;14.00;99.90;;;;;;5039051;28;20125;-95
2022/03/22 11:06:47;;;;;;;30.95;21.38;;;14.10;99.90;;;;;;5022886;28;20045;-93
2022/03/22 11:09:17;;;;;;;34.47;22.35;;;14.50;99.90;;;;;;5023485;28;20033;-95
2022/03/22 11:11:43;;;;;;;34.83;23.02;;;;;;;;;;5021844;28;20060;-95
2022/03/22 11:14:12;;;;;;;34.67;22.67;;;14.40;99.90;;;;;;5021981;28;20049;-91
2022/03/22 11:16:39;;;;;;;36.83;22.85;;;14.40;99.90;;;;;;5022447;28;20073;-95
2022/03/22 11:19:05;;;;;;;35.03;21.70;;;;;;;;;;5021569;28;20049;-95
2022/03/22 11:21:32;;;;;;;35.38;20.88;;;;;;;;;;5022381;28;20099;-94
2022/03/22 11:24:11;;;;;;;34.50;22.58;;;14.80;99.90;;;;;;5039574;28;20091;-94
2022/03/22 11:26:40;;;;;;;34.60;22.50;;;;;;;;;;5022254;28;20049;-89
2022/03/22 11:29:09;;;;;;;32.50;21.67;;;15.10;99.90;;;;;;5038768;28;20049;-94
2022/03/22 11:31:36;;;;;;;34.33;22.85;;;15.10;99.90;;;;;;5038216;28;20045;-96
2022/03/22 11:34:12;;;;;;;37.40;22.30;;;15.20;99.90;;;;;;5036127;28;20098;-84
2022/03/22 11:36:43;;;;;;;37.45;24.35;;;15.20;99.90;;;;;;5019773;28;20037;-84
2022/03/22 11:39:09;;;;;;;41.00;23.17;;;;;;;;;;5036079;28;20075;-84
2022/03/22 11:44:39;;;;;;;34.85;19.05;;;15.60;99.90;;;;;;5036131;28;20414;-85
2022/03/22 11:47:17;;;;;;;35.97;20.48;;;15.70;99.90;;;;;;5020564;28;20057;-84
2022/03/22 11:50:05;;;;;;;30.63;20.95;;;15.90;99.90;;;;;;5037000;28;20105;-88
2022/03/22 11:52:35;;;;;;;39.63;22.38;;;15.90;99.90;;;;;;5038461;28;20379;-84
2022/03/22 11:55:05;;;;;;;36.72;21.50;;;;;;;;;;5037609;28;20069;-84
2022/03/22 11:57:49;;;;;;;31.25;20.85;;;16.10;99.90;;;;;;5037486;28;20048;-84
2022/03/22 12:00:17;;;;;;;37.75;21.35;;;15.90;99.90;;;;;;5037057;28;20053;-84
2022/03/22 12:02:51;;;;;;;33.55;21.00;;;16.10;99.90;;;;;;5020394;28;20068;-85
2022/03/22 12:05:17;;;;;;;35.72;22.02;;;;;;;;;;5019999;28;20041;-84
2022/03/22 12:07:43;;;;;;;27.83;18.95;;;;;;;;;;5018663;28;20048;-83
2022/03/22 12:10:15;;;;;;;31.45;22.38;;;16.40;99.90;;;;;;5036032;28;20053;-85
2022/03/22 12:12:49;;;;;;;34.05;20.80;;;16.40;99.90;;;;;;5037135;28;20124;-85
2022/03/22 12:15:20;;;;;;;30.13;20.50;;;16.50;99.90;;;;;;5043803;28;20052;-95
2022/03/22 12:17:46;;;;;;;30.30;19.33;;;;;;;;;;5042386;28;20041;-91
2022/03/22 12:20:14;;;;;;;27.35;19.88;;;16.60;99.90;;;;;;5025383;28;20080;-95
2022/03/22 12:22:44;;;;;;;28.98;20.30;;;16.80;99.90;;;;;;5042039;28;20121;-95
2022/03/22 12:25:15;;;;;;;34.83;21.77;;;16.70;99.90;;;;;;5043468;28;20475;-93
2022/03/22 12:27:54;;;;;;;34.65;21.13;;;16.80;99.90;;;;;;5042041;28;20101;-90
2022/03/22 12:30:21;;;;;;;32.28;20.15;;;16.80;99.90;;;;;;5039914;28;20064;-94
2022/03/22 12:32:55;;;;;;;36.80;20.65;;;17.00;99.90;;;;;;5039686;28;20052;-92
2022/03/22 12:35:22;;;;;;;30.98;20.38;;;16.80;99.90;;;;;;5040429;28;20132;-93
2022/03/22 12:37:52;;;;;;;33.28;20.83;;;;;;;;;;5021119;28;20050;-92
2022/03/22 12:40:19;;;;;;;28.73;20.95;;;17.10;99.90;;;;;;5020939;28;20042;-90
2022/03/22 12:42:47;;;;;;;31.13;20.75;;;17.40;99.90;;;;;;5020957;28;20048;-93
2022/03/22 12:45:13;;;;;;;29.95;19.38;;;;;;;;;;5037471;28;20041;-93
2022/03/22 12:47:40;;;;;;;32.50;20.17;;;17.40;99.90;;;;;;5035552;28;20052;-88
2022/03/22 12:50:09;;;;;;;39.45;20.27;;;17.30;99.90;;;;;;5018932;28;20050;-87
2022/03/22 12:52:35;;;;;;;37.08;20.27;;;;;;;;;;5018014;28;20041;-88
2022/03/22 12:55:01;;;;;;;35.40;20.75;;;;;;;;;;5018689;28;20136;-87
2022/03/22 12:57:29;;;;;;;31.02;19.45;;;;;;;;;;5018004;28;20132;-86
2022/03/22 12:59:56;;;;;;;32.92;19.83;;;;;;;;;;5018133;28;20056;-89
2022/03/22 13:02:23;;;;;;;34.60;19.63;;;17.80;99.90;;;;;;5017364;28;20080;-89
2022/03/22 13:04:51;;;;;;;32.03;18.25;;;17.90;99.90;;;;;;5017651;28;20041;-88
2022/03/22 13:07:24;;;;;;;32.83;19.52;;;17.90;99.90;;;;;;5017193;28;20081;-88
2022/03/22 13:12:37;;;;;;;28.98;18.40;;;18.00;99.90;;;;;;5033331;28;20049;-88
2022/03/22 13:15:17;;;;;;;28.45;18.73;;;18.00;99.90;;;;;;5050459;28;20091;-87
2022/03/22 13:17:52;;;;;;;32.08;18.13;;;18.10;99.90;;;;;;5017078;28;20041;-89
2022/03/22 13:20:24;;;;;;;30.63;18.30;;;18.20;99.90;;;;;;5017159;28;20045;-88
2022/03/22 13:22:50;;;;;;;35.70;20.38;;;;;;;;;;5033746;28;20037;-87
2022/03/22 13:25:18;;;;;;;31.90;18.85;;;;;;;;;;5017420;28;20071;-88
2022/03/22 13:27:56;;;;;;;31.00;19.23;;;18.60;99.90;;;;;;5017874;28;20083;-92
2022/03/22 13:30:22;;;;;;;28.95;18.08;;;;;;;;;;5035422;28;20060;-92
2022/03/22 13:32:48;;;;;;;29.98;16.95;;;;;;;;;;5018676;28;20049;-94
2022/03/22 13:35:14;;;;;;;27.25;17.95;;;;;;;;;;5035047;28;20076;-88
2022/03/22 13:37:48;;;;;;;27.92;16.35;;;18.50;99.90;;;;;;5018299;28;20088;-93
2022/03/22 13:40:14;;;;;;;25.88;16.42;;;;;;;;;;5034233;28;20044;-93
2022/03/22 13:43:06;;;;;;;23.17;16.10;;;18.60;99.90;;;;;;5034330;28;20052;-92
2022/03/22 13:45:34;;;;;;;27.77;18.85;;;19.00;99.90;;;;;;5019915;28;20046;-89
2022/03/22 13:48:07;;;;;;;32.45;18.27;;;18.80;99.90;;;;;;5017962;28;20077;-90
2022/03/22 13:50:33;;;;;;;30.13;17.47;;;;;;;;;;5017516;28;20081;-92
2022/03/22 13:53:03;;;;;;;28.65;18.02;;;18.70;99.90;;;;;;5018493;28;20288;-95
2022/03/22 13:55:29;;;;;;;27.25;17.50;;;19.20;99.90;;;;;;5018876;28;20041;-95
2022/03/22 13:57:57;;;;;;;29.67;18.55;;;19.10;99.90;;;;;;5035052;28;20080;-93
2022/03/22 14:00:23;;;;;;;24.67;17.67;;;;;;;;;;5034903;28;20084;-90
2022/03/22 14:02:50;;;;;;;30.85;18.98;;;;;;;;;;5035224;28;20052;-95
2022/03/22 14:05:16;;;;;;;28.95;17.40;;;;;;;;;;5034947;28;20085;-91
2022/03/22 14:07:58;;;;;;;26.77;17.30;;;19.40;99.90;;;;;;5034800;28;20074;-85
2022/03/22 14:10:26;;;;;;;24.70;16.13;;;19.30;99.90;;;;;;5017784;28;20113;-85
2022/03/22 14:12:52;;;;;;;24.83;15.23;;;18.90;99.90;;;;;;5034453;28;20049;-87
2022/03/22 14:15:19;;;;;;;24.75;16.70;;;;;;;;;;5034307;28;20049;-91
2022/03/22 14:17:45;;;;;;;23.90;15.88;;;;;;;;;;5034364;28;20041;-94
2022/03/22 14:20:19;;;;;;;24.48;17.67;;;18.90;99.90;;;;;;5018928;28;20046;-93
2022/03/22 14:22:48;;;;;;;;;;;20.30;99.90;;;;;;5021882;28;20056;-93
2022/03/22 14:25:14;;;;;;;28.17;16.25;;;19.20;99.90;;;;;;5022846;28;20389;-89
2022/03/22 14:27:41;;;;;;;26.65;16.17;;;;;;;;;;5038300;28;20042;-90
2022/03/22 14:30:14;;;;;;;28.65;16.80;;;19.30;99.90;;;;;;5038322;28;20569;-91
2022/03/22 14:32:45;;;;;;;26.83;17.75;;;19.10;99.90;;;;;;5037968;28;20056;-93
2022/03/22 14:37:57;;;;;;;26.77;15.95;;;;;;;;;;5037926;28;20054;-92
2022/03/22 14:40:23;;;;;;;28.63;18.05;;;19.30;99.90;;;;;;5021931;28;20132;-86